Bloomington, Texas
Current Conditions -  °F | °C
As of 6:15 AM on Saturday 25 Oct 2014 (Local Time) from KPKV Reporting Station
Clear Clear  
Wind Chill: 59°   Ceiling: Unl
Heat Index: 59°   Visibility: 10mi
Dew Point: 56°   Wind: 0mph
Humidity: 91%   Direction: NA
Pressure: 30.14"   Gusts: NA
Location:  28.65°N, 96.89°W
Report Text: KPKV 251115Z AUTO 00000KT 10SM CLR 15/14 A3014 RMK AO2 T01490135
Loading
Personal Weather Stations






























Interactive Weather Map
Tropical Storm Tracking
New forecast layout! Learn more

10-Day Weather Forecast

Advertisements
Track Severe Weather on mobile